createdAt,value
2023-02-21T00:02:38.661Z,9.02
2023-02-21T00:05:24.100Z,10.63
2023-02-21T00:08:11.893Z,9.82
2023-02-21T00:10:56.780Z,9.85
2023-02-21T00:13:41.535Z,9.23
2023-02-21T00:16:26.797Z,9.35
2023-02-21T00:19:12.812Z,10.68
2023-02-21T00:22:00.982Z,10.60
2023-02-21T00:24:45.994Z,10.30
2023-02-21T00:27:36.370Z,9.40
2023-02-21T00:30:21.880Z,8.32
2023-02-21T00:33:11.341Z,10.32
2023-02-21T00:35:57.332Z,8.82
2023-02-21T00:38:42.452Z,10.57
2023-02-21T00:41:28.323Z,9.25
2023-02-21T00:44:16.726Z,8.63
2023-02-21T00:47:02.838Z,10.38
2023-02-21T00:49:47.858Z,11.30
2023-02-21T00:52:33.013Z,8.13
2023-02-21T00:55:19.933Z,10.20
2023-02-21T00:58:05.179Z,8.25
2023-02-21T01:00:50.092Z,7.47
2023-02-21T01:03:35.558Z,9.45
2023-02-21T01:06:28.423Z,7.90
2023-02-21T01:09:13.499Z,9.05
2023-02-21T01:11:58.826Z,10.25
2023-02-21T01:14:44.702Z,8.77
2023-02-21T01:17:29.607Z,9.45
2023-02-21T01:20:14.683Z,9.30
2023-02-21T01:23:00.561Z,8.10
2023-02-21T01:25:46.389Z,9.82
2023-02-21T01:28:31.483Z,9.98
2023-02-21T01:31:17.176Z,9.38
2023-02-21T01:34:03.673Z,12.07
2023-02-21T01:36:48.842Z,9.27
2023-02-21T01:39:34.036Z,12.02
2023-02-21T01:42:19.813Z,12.38
2023-02-21T01:45:06.384Z,10.30
2023-02-21T01:47:55.347Z,12.50
2023-02-21T01:50:45.904Z,13.07
2023-02-21T01:53:42.683Z,12.55
2023-02-21T01:56:28.598Z,13.27
2023-02-21T01:59:16.363Z,11.23
2023-02-21T02:02:10.127Z,12.52
2023-02-21T02:04:56.402Z,12.60
2023-02-21T02:07:41.789Z,11.10
2023-02-21T02:10:32.601Z,13.98
2023-02-21T02:13:13.463Z,12.43
2023-02-21T02:16:02.127Z,13.35
2023-02-21T02:18:48.634Z,12.02
2023-02-21T02:21:45.494Z,11.23
2023-02-21T02:24:42.946Z,12.60
2023-02-21T02:27:47.774Z,11.40
2023-02-21T02:30:33.085Z,13.07
2023-02-21T02:33:25.337Z,14.50
2023-02-21T02:36:06.959Z,12.45
2023-02-21T02:38:36.567Z,13.38
2023-02-21T02:41:14.366Z,13.60
2023-02-21T02:43:56.022Z,12.77
2023-02-21T02:46:31.982Z,14.45
2023-02-21T02:49:23.789Z,12.70
2023-02-21T02:51:53.883Z,12.20
2023-02-21T02:54:23.198Z,14.75
2023-02-21T02:56:49.944Z,15.07
2023-02-21T02:59:22.662Z,13.98
2023-02-21T03:01:49.393Z,14.23
2023-02-21T03:04:41.161Z,14.48
2023-02-21T03:07:22.685Z,12.95
2023-02-21T03:10:21.277Z,14.40
2023-02-21T03:13:12.758Z,14.52
2023-02-21T03:15:49.905Z,14.05
2023-02-21T03:18:21.565Z,13.55
2023-02-21T03:20:53.953Z,15.38
2023-02-21T03:23:21.783Z,15.70
2023-02-21T03:25:50.543Z,14.02
2023-02-21T03:28:18.926Z,14.23
2023-02-21T03:30:46.338Z,16.38
2023-02-21T03:33:13.028Z,13.98
2023-02-21T03:35:39.990Z,15.77
2023-02-21T03:38:06.557Z,15.68
2023-02-21T03:40:33.884Z,14.35
2023-02-21T03:43:05.301Z,14.70
2023-02-21T03:45:36.233Z,15.23
2023-02-21T03:48:08.303Z,15.77
2023-02-21T03:50:36.714Z,15.05
2023-02-21T03:53:03.996Z,15.88
2023-02-21T03:55:32.085Z,14.07
2023-02-21T03:58:01.232Z,14.70
2023-02-21T04:00:30.967Z,18.17
2023-02-21T04:02:57.557Z,14.80
2023-02-21T04:05:36.872Z,15.50
2023-02-21T04:08:03.915Z,15.55
2023-02-21T04:10:33.949Z,14.48
2023-02-21T04:13:04.186Z,16.38
2023-02-21T04:15:35.672Z,16.98
2023-02-21T04:18:02.427Z,14.57
2023-02-21T04:20:29.580Z,17.40
2023-02-21T04:23:03.523Z,17.00
2023-02-21T04:25:30.679Z,18.35
2023-02-21T04:28:05.563Z,14.00
2023-02-21T04:30:32.220Z,16.83
2023-02-21T04:32:59.032Z,16.02
2023-02-21T04:35:25.641Z,16.83
2023-02-21T04:37:54.206Z,18.42
2023-02-21T04:40:23.724Z,15.90
2023-02-21T04:42:50.241Z,16.27
2023-02-21T04:45:17.538Z,17.77
2023-02-21T04:47:44.285Z,18.90
2023-02-21T04:50:10.756Z,18.48
2023-02-21T04:52:37.258Z,16.80
2023-02-21T04:55:03.823Z,17.85
2023-02-21T04:57:30.302Z,17.48
2023-02-21T04:59:58.306Z,19.10
2023-02-21T05:02:24.952Z,19.33
2023-02-21T05:04:51.969Z,16.83
2023-02-21T05:07:18.675Z,17.92
2023-02-21T05:09:45.282Z,18.05
2023-02-21T05:12:14.824Z,18.58
2023-02-21T05:14:41.908Z,17.63
2023-02-21T05:17:09.061Z,16.17
2023-02-21T05:19:35.987Z,18.25
2023-02-21T05:22:03.045Z,18.70
2023-02-21T05:24:30.822Z,19.77
2023-02-21T05:26:58.350Z,17.70
2023-02-21T05:29:25.390Z,17.25
2023-02-21T05:31:52.063Z,18.58
2023-02-21T05:34:19.834Z,18.13
2023-02-21T05:36:46.863Z,17.80
2023-02-21T05:39:13.967Z,17.75
2023-02-21T05:41:46.976Z,17.33
2023-02-21T05:44:13.557Z,19.48
2023-02-21T05:46:40.213Z,19.88
2023-02-21T05:49:06.994Z,18.67
2023-02-21T05:51:42.298Z,22.33
2023-02-21T05:54:11.605Z,21.98
2023-02-21T05:56:41.956Z,18.92
2023-02-21T05:59:08.914Z,20.45
2023-02-21T06:01:36.262Z,20.40
2023-02-21T06:04:02.883Z,17.77
2023-02-21T06:06:29.362Z,23.42
2023-02-21T06:08:55.827Z,19.30
2023-02-21T06:11:31.846Z,18.17
2023-02-21T06:13:59.206Z,19.42
2023-02-21T06:16:26.537Z,18.65
2023-02-21T06:18:54.907Z,16.95
2023-02-21T06:21:21.576Z,17.17
2023-02-21T06:23:48.667Z,18.58
2023-02-21T06:26:16.575Z,17.63
2023-02-21T06:28:43.056Z,18.73
2023-02-21T06:31:09.941Z,17.40
2023-02-21T06:33:36.580Z,16.52
2023-02-21T06:36:09.312Z,16.60
2023-02-21T06:38:37.102Z,15.93
2023-02-21T06:41:08.401Z,15.68
2023-02-21T06:43:38.549Z,15.38
2023-02-21T06:46:06.985Z,19.27
2023-02-21T06:48:33.622Z,15.85
2023-02-21T06:51:00.597Z,17.55
2023-02-21T06:53:27.058Z,18.77
2023-02-21T06:55:53.715Z,17.35
2023-02-21T06:58:20.193Z,20.48
2023-02-21T07:00:46.745Z,19.98
2023-02-21T07:03:13.305Z,18.05
2023-02-21T07:05:42.050Z,20.50
2023-02-21T07:08:08.578Z,18.23
2023-02-21T07:10:35.313Z,16.88
2023-02-21T07:13:01.874Z,18.92
2023-02-21T07:15:28.582Z,19.10
2023-02-21T07:17:55.045Z,18.55
2023-02-21T07:20:22.096Z,19.60
2023-02-21T07:22:48.688Z,18.83
2023-02-21T07:25:17.510Z,18.92
2023-02-21T07:27:46.902Z,18.40
2023-02-21T07:30:14.105Z,17.98
2023-02-21T07:32:40.569Z,19.65
2023-02-21T07:35:08.070Z,20.27
2023-02-21T07:37:34.777Z,20.33
2023-02-21T07:40:05.678Z,19.85
2023-02-21T07:42:32.143Z,19.50
2023-02-21T07:44:58.957Z,18.00
2023-02-21T07:47:29.090Z,18.55
2023-02-21T07:49:55.546Z,19.08
2023-02-21T07:52:22.375Z,22.17
2023-02-21T07:54:49.104Z,21.50
2023-02-21T07:57:16.800Z,20.13
2023-02-21T07:59:43.496Z,19.17
2023-02-21T08:02:11.918Z,18.65
2023-02-21T08:04:38.418Z,19.13
2023-02-21T08:07:05.452Z,19.60
2023-02-21T08:09:33.478Z,22.90
2023-02-21T08:12:00.329Z,20.17
2023-02-21T08:14:29.152Z,20.60
2023-02-21T08:16:55.611Z,20.05
2023-02-21T08:19:22.106Z,23.45
2023-02-21T08:21:49.416Z,22.77
2023-02-21T08:24:17.490Z,20.77
2023-02-21T08:26:45.728Z,20.40
2023-02-21T08:29:13.813Z,21.17
2023-02-21T08:31:41.559Z,20.20
2023-02-21T08:34:08.756Z,20.98
2023-02-21T08:36:37.763Z,21.73
2023-02-21T08:39:05.348Z,18.83
2023-02-21T08:41:42.623Z,20.90
2023-02-21T08:44:16.095Z,20.92
2023-02-21T08:46:42.610Z,20.05
2023-02-21T08:49:10.221Z,20.58
2023-02-21T08:51:37.078Z,19.63
2023-02-21T08:54:03.736Z,18.10
2023-02-21T08:56:33.060Z,18.50
2023-02-21T08:58:59.676Z,18.33
2023-02-21T09:01:34.577Z,17.83
2023-02-21T09:04:06.977Z,19.58
2023-02-21T09:06:33.555Z,21.23
2023-02-21T09:09:00.255Z,20.40
2023-02-21T09:11:28.848Z,19.08
2023-02-21T09:13:55.432Z,16.05
2023-02-21T09:16:22.644Z,16.45
2023-02-21T09:18:58.940Z,18.17
2023-02-21T09:21:25.962Z,17.42
2023-02-21T09:23:56.790Z,16.17
2023-02-21T09:26:24.320Z,16.27
2023-02-21T09:28:54.135Z,16.48
2023-02-21T09:31:20.830Z,15.23
2023-02-21T09:33:47.470Z,17.88
2023-02-21T09:36:14.256Z,18.92
2023-02-21T09:38:43.873Z,18.17
2023-02-21T09:41:16.938Z,16.13
2023-02-21T09:43:49.200Z,16.35
2023-02-21T09:46:18.560Z,15.27
2023-02-21T09:48:45.645Z,16.77
2023-02-21T09:51:14.140Z,17.33
2023-02-21T09:53:43.743Z,14.45
2023-02-21T09:56:21.542Z,14.93
2023-02-21T09:58:49.552Z,15.32
2023-02-21T10:01:25.346Z,12.98
2023-02-21T10:03:57.574Z,13.32
2023-02-21T10:06:30.403Z,14.02
2023-02-21T10:08:56.910Z,14.18
2023-02-21T10:11:54.265Z,13.73
2023-02-21T10:14:32.726Z,12.82
2023-02-21T10:17:05.216Z,11.38
2023-02-21T10:19:38.433Z,11.80
2023-02-21T10:22:14.810Z,11.27
2023-02-21T10:24:42.095Z,10.75
2023-02-21T10:27:15.912Z,11.57
2023-02-21T10:29:52.138Z,13.32
2023-02-21T10:32:18.969Z,10.10
2023-02-21T10:34:47.532Z,12.68
2023-02-21T10:37:40.743Z,11.45
2023-02-21T10:40:25.310Z,9.40
2023-02-21T10:43:01.497Z,10.43
2023-02-21T10:45:34.445Z,11.82
2023-02-21T10:48:04.474Z,11.05
2023-02-21T10:50:43.680Z,10.63
2023-02-21T10:53:26.448Z,9.95
2023-02-21T10:56:14.723Z,10.27
2023-02-21T10:59:05.614Z,11.52
2023-02-21T11:01:36.301Z,9.45
2023-02-21T11:04:06.611Z,9.45
2023-02-21T11:06:36.444Z,9.60
2023-02-21T11:09:44.284Z,11.50
2023-02-21T11:12:19.735Z,9.60
2023-02-21T11:15:18.806Z,9.02
2023-02-21T11:17:47.133Z,9.13
2023-02-21T11:20:13.498Z,9.02
2023-02-21T11:22:42.723Z,10.10
2023-02-21T11:25:33.244Z,8.25
2023-02-21T11:28:03.766Z,12.38
2023-02-21T11:30:32.567Z,9.90
2023-02-21T11:33:00.751Z,8.93
2023-02-21T11:35:51.428Z,9.85
2023-02-21T11:38:38.040Z,8.93
2023-02-21T11:41:17.302Z,9.13
2023-02-21T11:43:52.604Z,9.25
2023-02-21T11:46:35.323Z,8.43
2023-02-21T11:49:12.347Z,7.93
2023-02-21T11:51:49.585Z,8.95
2023-02-21T11:54:16.440Z,7.93
2023-02-21T11:57:17.064Z,7.20
2023-02-21T11:59:49.799Z,8.95
2023-02-21T12:02:36.694Z,7.93
2023-02-21T12:05:15.398Z,6.93
2023-02-21T12:08:05.304Z,5.90
2023-02-21T12:10:56.948Z,7.20
2023-02-21T12:13:29.572Z,7.72
2023-02-21T12:16:05.482Z,6.50
2023-02-21T12:18:43.587Z,7.80
2023-02-21T12:21:21.702Z,7.40
2023-02-21T12:23:59.945Z,8.52
2023-02-21T12:26:46.547Z,7.15
2023-02-21T12:29:32.700Z,7.25
2023-02-21T12:32:23.358Z,7.63
2023-02-21T12:35:27.676Z,7.70
2023-02-21T12:38:04.389Z,7.00
2023-02-21T12:41:05.705Z,6.45
2023-02-21T12:43:36.606Z,7.45
2023-02-21T12:46:23.325Z,7.72
2023-02-21T12:49:13.221Z,6.35
2023-02-21T12:51:47.978Z,6.55
2023-02-21T12:54:21.767Z,6.00
2023-02-21T12:56:56.335Z,7.28
2023-02-21T12:59:31.030Z,5.90
2023-02-21T13:02:09.548Z,6.60
2023-02-21T13:04:54.761Z,6.32
2023-02-21T13:07:34.491Z,5.45
2023-02-21T13:10:17.163Z,4.00
2023-02-21T13:12:49.607Z,4.80
2023-02-21T13:15:21.870Z,6.18
2023-02-21T13:18:07.116Z,7.03
2023-02-21T13:20:49.526Z,4.78
2023-02-21T13:23:38.413Z,5.72
2023-02-21T13:26:38.028Z,6.55
2023-02-21T13:29:28.547Z,7.78
2023-02-21T13:32:03.957Z,6.63
2023-02-21T13:34:37.070Z,5.85
2023-02-21T13:37:07.396Z,5.67
2023-02-21T13:39:37.537Z,6.05
2023-02-21T13:42:10.600Z,5.68
2023-02-21T13:44:45.424Z,4.60
2023-02-21T13:47:21.656Z,5.00
2023-02-21T13:50:00.201Z,6.75
2023-02-21T13:52:32.689Z,8.43
2023-02-21T13:55:11.753Z,5.20
2023-02-21T13:57:40.879Z,5.78
2023-02-21T14:00:31.602Z,4.90
2023-02-21T14:03:05.520Z,6.90
2023-02-21T14:08:26.649Z,5.63
2023-02-21T14:11:08.402Z,4.82
2023-02-21T14:13:54.524Z,4.70
2023-02-21T14:16:37.762Z,3.80
2023-02-21T14:19:10.107Z,5.00
2023-02-21T14:21:41.421Z,3.85
2023-02-21T14:24:13.434Z,4.00
2023-02-21T14:26:39.892Z,5.72
2023-02-21T14:29:07.875Z,4.22
2023-02-21T14:31:51.300Z,3.83
2023-02-21T14:34:50.503Z,3.88
2023-02-21T14:37:55.364Z,5.03
2023-02-21T14:40:46.877Z,6.10
2023-02-21T14:43:19.283Z,4.50
2023-02-21T14:46:30.329Z,5.78
2023-02-21T14:49:18.615Z,7.05
2023-02-21T14:52:23.738Z,6.30
2023-02-21T14:55:00.056Z,5.85
2023-02-21T14:57:41.832Z,6.75
2023-02-21T15:00:28.628Z,6.82
2023-02-21T15:03:06.366Z,8.95
2023-02-21T15:05:47.927Z,7.13
2023-02-21T15:08:25.947Z,6.88
2023-02-21T15:10:59.479Z,6.20
2023-02-21T15:13:27.983Z,7.38
2023-02-21T15:16:09.069Z,6.78
2023-02-21T15:18:40.362Z,6.78
2023-02-21T15:21:20.483Z,7.72
2023-02-21T15:23:50.039Z,8.55
2023-02-21T15:26:30.333Z,7.65
2023-02-21T15:29:17.570Z,7.53
2023-02-21T15:31:52.151Z,8.18
2023-02-21T15:34:27.296Z,8.35
2023-02-21T15:37:08.514Z,8.60
2023-02-21T15:39:38.462Z,9.60
2023-02-21T15:42:07.903Z,9.43
2023-02-21T15:44:49.904Z,6.55
2023-02-21T15:47:19.858Z,8.93
2023-02-21T15:50:05.908Z,7.80
2023-02-21T15:52:42.507Z,7.75
2023-02-21T15:55:33.472Z,8.30
2023-02-21T15:57:59.831Z,8.07
2023-02-21T16:00:29.410Z,9.15
2023-02-21T16:03:29.903Z,7.88
2023-02-21T16:06:11.026Z,7.32
2023-02-21T16:08:51.170Z,7.30
2023-02-21T16:11:18.919Z,8.55
2023-02-21T16:13:46.084Z,8.07
2023-02-21T16:16:15.386Z,7.22
2023-02-21T16:18:42.111Z,8.05
2023-02-21T16:21:22.823Z,8.18
2023-02-21T16:23:49.352Z,6.32
2023-02-21T16:26:28.425Z,6.80
2023-02-21T16:28:59.270Z,6.47
2023-02-21T16:31:32.036Z,6.78
2023-02-21T16:33:58.644Z,6.63
2023-02-21T16:36:28.886Z,5.50
2023-02-21T16:38:56.484Z,6.53
2023-02-21T16:41:26.682Z,5.57
2023-02-21T16:43:55.590Z,5.80
2023-02-21T16:46:29.648Z,6.95
2023-02-21T16:48:59.861Z,6.32
2023-02-21T16:51:33.364Z,6.20
2023-02-21T16:53:59.847Z,5.53
2023-02-21T16:56:26.319Z,5.82
2023-02-21T16:58:56.179Z,7.03
2023-02-21T17:01:30.743Z,5.97
2023-02-21T17:03:58.871Z,6.68
2023-02-21T17:06:29.709Z,7.10
2023-02-21T17:08:56.711Z,7.75
2023-02-21T17:11:23.176Z,5.57
2023-02-21T17:13:49.640Z,6.57
2023-02-21T17:16:16.135Z,6.72
2023-02-21T17:18:43.919Z,9.05
2023-02-21T17:21:11.390Z,7.13
2023-02-21T17:23:41.474Z,5.93
2023-02-21T17:26:07.962Z,6.90
2023-02-21T17:28:34.602Z,6.38
2023-02-21T17:31:01.115Z,6.88
2023-02-21T17:33:27.809Z,7.95
2023-02-21T17:35:57.459Z,7.35
2023-02-21T17:38:23.944Z,7.75
2023-02-21T17:40:50.397Z,10.95
2023-02-21T17:43:16.962Z,10.50
2023-02-21T17:45:46.393Z,9.88
2023-02-21T17:48:17.710Z,7.78
2023-02-21T17:50:44.165Z,6.75
2023-02-21T17:53:10.859Z,7.28
2023-02-21T17:55:40.448Z,8.65
2023-02-21T17:58:06.937Z,8.25
2023-02-21T18:00:34.732Z,8.32
2023-02-21T18:03:09.275Z,9.15
2023-02-21T18:05:41.604Z,8.63
2023-02-21T18:08:08.097Z,11.10
2023-02-21T18:10:43.238Z,9.23
2023-02-21T18:13:23.190Z,7.85
2023-02-21T18:15:52.775Z,8.65
2023-02-21T18:18:23.022Z,9.23
2023-02-21T18:20:49.493Z,9.88
2023-02-21T18:23:16.011Z,8.88
2023-02-21T18:25:42.550Z,11.40
2023-02-21T18:28:09.055Z,9.90
2023-02-21T18:30:35.613Z,9.20
2023-02-21T18:33:02.591Z,9.07
2023-02-21T18:35:35.128Z,8.45
2023-02-21T18:38:04.668Z,10.80
2023-02-21T18:40:34.297Z,9.93
2023-02-21T18:43:01.871Z,10.63
2023-02-21T18:45:29.568Z,11.52
2023-02-21T18:48:01.476Z,11.73
2023-02-21T18:50:31.683Z,12.07
2023-02-21T18:52:58.902Z,13.95
2023-02-21T18:55:27.440Z,13.07
2023-02-21T18:57:53.951Z,10.48
2023-02-21T19:00:23.845Z,13.32
2023-02-21T19:02:50.316Z,12.18
2023-02-21T19:05:22.084Z,12.85
2023-02-21T19:07:48.550Z,11.60
2023-02-21T19:10:21.258Z,11.88
2023-02-21T19:12:54.414Z,12.50
2023-02-21T19:15:23.924Z,12.93
2023-02-21T19:17:53.941Z,14.05
2023-02-21T19:20:28.685Z,12.48
2023-02-21T19:22:56.001Z,13.27
2023-02-21T19:25:29.767Z,14.18
2023-02-21T19:28:03.307Z,12.75
2023-02-21T19:30:39.991Z,12.93
2023-02-21T19:33:11.845Z,12.35
2023-02-21T19:35:39.686Z,14.07
2023-02-21T19:38:08.013Z,12.70
2023-02-21T19:40:35.414Z,15.23
2023-02-21T19:43:03.466Z,14.88
2023-02-21T19:45:33.303Z,16.92
2023-02-21T19:48:02.302Z,17.20
2023-02-21T19:50:30.749Z,13.20
2023-02-21T19:53:03.878Z,13.75
2023-02-21T19:55:30.755Z,20.90
2023-02-21T19:57:57.251Z,15.30
2023-02-21T20:00:29.360Z,14.98
2023-02-21T20:02:56.986Z,16.10
2023-02-21T20:05:23.668Z,20.27
2023-02-21T20:07:50.131Z,19.05
2023-02-21T20:10:25.518Z,19.48
2023-02-21T20:12:55.266Z,19.90
2023-02-21T20:15:21.734Z,17.70
2023-02-21T20:17:50.761Z,19.95
2023-02-21T20:20:17.373Z,18.65
2023-02-21T20:22:46.242Z,19.10
2023-02-21T20:25:12.734Z,18.27
2023-02-21T20:27:41.873Z,17.60
2023-02-21T20:30:09.859Z,16.17
2023-02-21T20:32:36.776Z,19.67
2023-02-21T20:35:12.985Z,18.30
2023-02-21T20:37:40.037Z,17.42
2023-02-21T20:40:10.122Z,20.63
2023-02-21T20:42:37.077Z,17.65
2023-02-21T20:45:03.675Z,19.90
2023-02-21T20:47:30.658Z,20.35
2023-02-21T20:49:58.330Z,17.98
2023-02-21T20:52:28.298Z,20.63
2023-02-21T20:54:54.803Z,16.67
2023-02-21T20:57:21.288Z,18.38
2023-02-21T20:59:47.806Z,19.92
2023-02-21T21:02:14.332Z,20.27
2023-02-21T21:04:43.205Z,20.70
2023-02-21T21:07:12.948Z,20.00
2023-02-21T21:09:40.313Z,20.63
2023-02-21T21:12:11.261Z,17.90
2023-02-21T21:14:41.922Z,16.05
2023-02-21T21:17:13.778Z,15.55
2023-02-21T21:19:41.446Z,17.75
2023-02-21T21:22:12.353Z,18.02
2023-02-21T21:24:40.487Z,18.35
2023-02-21T21:27:12.397Z,17.70
2023-02-21T21:29:43.081Z,20.02
2023-02-21T21:32:11.268Z,16.75
2023-02-21T21:34:43.622Z,16.52
2023-02-21T21:37:10.321Z,14.55
2023-02-21T21:39:37.493Z,15.35
2023-02-21T21:42:09.331Z,14.98
2023-02-21T21:44:47.069Z,14.10
2023-02-21T21:47:18.375Z,15.10
2023-02-21T21:49:50.352Z,16.02
2023-02-21T21:52:18.894Z,14.27
2023-02-21T21:54:46.182Z,13.88
2023-02-21T21:57:16.610Z,16.67
2023-02-21T21:59:44.653Z,13.68
2023-02-21T22:02:11.537Z,17.00
2023-02-21T22:04:39.589Z,16.58
2023-02-21T22:07:09.907Z,18.27
2023-02-21T22:09:36.565Z,18.52
2023-02-21T22:12:07.805Z,19.00
2023-02-21T22:14:35.340Z,16.55
2023-02-21T22:17:01.867Z,17.15
2023-02-21T22:19:30.816Z,18.40
2023-02-21T22:21:59.244Z,16.70
2023-02-21T22:24:25.851Z,19.10
2023-02-21T22:26:54.965Z,17.17
2023-02-21T22:29:22.384Z,17.73
2023-02-21T22:31:51.278Z,16.63
2023-02-21T22:34:24.896Z,22.95
2023-02-21T22:36:54.068Z,17.27
2023-02-21T22:39:21.395Z,20.08
2023-02-21T22:41:51.368Z,21.20
2023-02-21T22:44:19.292Z,18.40
2023-02-21T22:46:58.396Z,16.80
2023-02-21T22:49:26.288Z,17.90
2023-02-21T22:51:52.783Z,18.50
2023-02-21T22:54:19.325Z,27.05
2023-02-21T22:56:50.924Z,19.40
2023-02-21T22:59:27.399Z,43.10
2023-02-21T23:01:54.709Z,14.93
2023-02-21T23:04:27.491Z,15.35
2023-02-21T23:06:55.732Z,15.88
2023-02-21T23:09:24.353Z,17.35
2023-02-21T23:11:53.518Z,20.45
2023-02-21T23:14:22.027Z,19.27
2023-02-21T23:16:48.713Z,17.45
2023-02-21T23:19:16.565Z,17.63
2023-02-21T23:21:51.938Z,20.38
2023-02-21T23:24:20.288Z,18.52
2023-02-21T23:26:48.578Z,18.55
2023-02-21T23:29:18.743Z,20.35
2023-02-21T23:31:45.809Z,18.02
2023-02-21T23:34:12.398Z,22.83
2023-02-21T23:36:45.118Z,21.38
2023-02-21T23:39:14.964Z,22.38
2023-02-21T23:41:42.498Z,20.45
2023-02-21T23:44:12.997Z,20.23
2023-02-21T23:46:42.397Z,20.60
2023-02-21T23:49:15.251Z,23.45
2023-02-21T23:51:46.632Z,23.00
2023-02-21T23:54:21.089Z,24.13
2023-02-21T23:56:48.296Z,20.85
2023-02-21T23:59:16.084Z,22.25
